createdAt,value
2023-05-01T13:42:08.065Z,65.90
2023-05-01T13:44:36.952Z,65.80
2023-05-01T13:47:06.155Z,60.90
2023-05-01T13:49:35.253Z,59.00
2023-05-01T13:52:04.261Z,56.90
2023-05-01T13:54:33.128Z,56.60
2023-05-01T13:57:02.339Z,55.80
2023-05-01T13:59:31.320Z,55.80
2023-05-01T14:02:00.451Z,55.70
2023-05-01T14:04:29.522Z,55.90
2023-05-01T14:06:58.402Z,56.20
2023-05-01T14:09:27.509Z,56.10
2023-05-01T14:11:56.707Z,55.70
2023-05-01T14:14:26.010Z,56.40
2023-05-01T14:16:54.910Z,56.90
2023-05-01T14:19:23.818Z,57.60
2023-05-01T14:21:52.876Z,57.10
2023-05-01T14:24:21.843Z,56.80
2023-05-01T14:26:50.760Z,56.60
2023-05-01T14:29:19.859Z,56.40
2023-05-01T14:31:48.960Z,56.20
2023-05-01T14:34:17.964Z,55.90
2023-05-01T14:36:47.251Z,56.40
2023-05-01T14:39:16.133Z,56.60
2023-05-01T14:41:45.356Z,56.60
2023-05-01T14:44:14.431Z,57.50
2023-05-01T14:46:43.781Z,58.30
2023-05-01T14:49:12.833Z,58.70
2023-05-01T14:51:41.935Z,59.60
2023-05-01T14:54:11.232Z,59.50
2023-05-01T14:56:40.189Z,59.30
2023-05-01T14:59:09.115Z,58.70
2023-05-01T15:01:38.289Z,58.80
2023-05-01T15:04:07.412Z,58.90
2023-05-01T15:06:36.525Z,59.40
2023-05-01T15:09:05.420Z,59.20
2023-05-01T15:11:34.606Z,58.70
2023-05-01T15:14:03.706Z,58.00
2023-05-01T15:16:32.743Z,57.60
2023-05-01T15:19:02.328Z,57.20
2023-05-01T15:21:31.291Z,56.50
2023-05-01T15:24:00.497Z,56.30
2023-05-01T15:26:30.118Z,55.80
2023-05-01T15:28:59.303Z,55.90
2023-05-01T15:31:28.547Z,56.10
2023-05-01T15:33:57.521Z,56.30
2023-05-01T15:36:26.487Z,56.30
2023-05-01T15:38:55.477Z,56.40
2023-05-01T15:41:24.578Z,56.70
2023-05-01T15:43:53.780Z,56.50
2023-05-01T15:46:22.744Z,56.40
2023-05-01T15:48:51.964Z,56.50
2023-05-01T15:51:21.163Z,56.50
2023-05-01T15:53:50.236Z,56.60
2023-05-01T15:56:19.140Z,56.70
2023-05-01T15:58:48.241Z,56.40
2023-05-01T16:01:17.324Z,56.40
2023-05-01T16:03:46.535Z,56.60
2023-05-01T16:06:15.779Z,56.50
2023-05-01T16:08:45.232Z,56.50
2023-05-01T16:11:14.228Z,56.60
2023-05-01T16:13:43.113Z,56.60
2023-05-01T16:16:12.391Z,56.70
2023-05-01T16:18:41.412Z,56.80
2023-05-01T16:21:10.293Z,57.00
2023-05-01T16:23:39.500Z,56.90
2023-05-01T16:26:08.596Z,57.00
2023-05-01T16:28:37.716Z,57.20
2023-05-01T16:31:15.981Z,57.60
2023-05-01T16:33:36.693Z,57.80
2023-05-01T16:36:05.698Z,57.60
2023-05-01T16:38:34.688Z,57.50
2023-05-01T16:41:03.866Z,57.80
2023-05-01T16:43:33.092Z,58.10
2023-05-01T16:46:02.002Z,58.50
2023-05-01T16:48:30.959Z,58.50
2023-05-01T16:50:59.858Z,58.50
2023-05-01T16:53:28.953Z,58.50
2023-05-01T16:55:58.153Z,58.40
2023-05-01T16:58:27.016Z,58.60
2023-05-01T17:00:55.928Z,58.40
2023-05-01T17:03:24.816Z,58.50
2023-05-01T17:05:54.029Z,58.50
2023-05-01T17:08:23.223Z,58.50
2023-05-01T17:10:52.207Z,58.50
2023-05-01T17:13:21.279Z,58.60
2023-05-01T17:15:50.338Z,58.50
2023-05-01T17:18:19.290Z,58.70
2023-05-01T17:20:48.190Z,58.70
2023-05-01T17:23:17.494Z,58.50
2023-05-01T17:25:46.478Z,58.50
2023-05-01T17:28:15.570Z,58.40
2023-05-01T17:30:44.573Z,58.40
2023-05-01T17:33:13.702Z,58.40
2023-05-01T17:35:42.651Z,58.20
2023-05-01T17:38:11.647Z,58.30
2023-05-01T17:40:40.543Z,58.40
2023-05-01T17:43:09.541Z,58.50
2023-05-01T17:45:38.487Z,58.40
2023-05-01T17:48:07.592Z,58.10
2023-05-01T17:50:36.830Z,58.30
2023-05-01T17:53:06.131Z,58.40
2023-05-01T17:55:35.138Z,58.50
2023-05-01T17:58:04.324Z,58.50
2023-05-01T18:00:33.528Z,58.60
2023-05-01T18:03:02.505Z,58.60
2023-05-01T18:05:31.605Z,58.60
2023-05-01T18:08:01.037Z,58.70
2023-05-01T18:10:30.096Z,58.90
2023-05-01T18:12:59.097Z,58.90
2023-05-01T18:15:28.191Z,59.10
2023-05-01T18:17:57.091Z,59.20
2023-05-01T18:20:26.278Z,58.60
2023-05-01T18:22:55.272Z,58.60
2023-05-01T18:25:24.155Z,58.60
2023-05-01T18:27:53.056Z,58.70
2023-05-01T18:30:22.052Z,58.70
2023-05-01T18:32:51.520Z,59.00
2023-05-01T18:35:20.635Z,58.90
2023-05-01T18:37:49.763Z,59.10
2023-05-01T18:40:18.632Z,59.40
2023-05-01T18:42:47.646Z,59.40
2023-05-01T18:45:16.526Z,59.30
2023-05-01T18:47:45.864Z,59.60
2023-05-01T18:50:14.825Z,59.50
2023-05-01T18:52:44.129Z,59.80
2023-05-01T18:55:13.422Z,59.40
2023-05-01T18:57:42.707Z,59.40
2023-05-01T19:00:11.927Z,59.40
2023-05-01T19:02:41.306Z,59.50
2023-05-01T19:05:10.873Z,59.50
2023-05-01T19:07:40.014Z,59.50
2023-05-01T19:10:09.337Z,59.60
2023-05-01T19:12:38.520Z,59.70
2023-05-01T19:15:07.819Z,59.30
2023-05-01T19:17:37.316Z,59.40
2023-05-01T19:20:06.823Z,59.40
2023-05-01T19:22:35.916Z,60.00
2023-05-01T19:25:04.843Z,59.50
2023-05-01T19:27:34.016Z,59.60
2023-05-01T19:30:03.299Z,59.50
2023-05-01T19:32:32.454Z,59.70
2023-05-01T19:35:01.827Z,59.30
2023-05-01T19:37:31.209Z,60.30
2023-05-01T19:40:00.947Z,60.60
2023-05-01T19:42:30.640Z,61.10
2023-05-01T19:44:59.951Z,61.10
2023-05-01T19:47:29.273Z,61.20
2023-05-01T19:49:58.781Z,61.30
2023-05-01T19:52:28.353Z,61.40
2023-05-01T19:54:57.543Z,61.50
2023-05-01T19:57:26.851Z,61.50
2023-05-01T19:59:56.048Z,61.50
2023-05-01T20:02:25.513Z,61.60
2023-05-01T20:04:55.056Z,62.20
2023-05-01T20:07:24.465Z,61.60
2023-05-01T20:09:53.966Z,61.70
2023-05-01T20:12:23.371Z,62.50
2023-05-01T20:14:52.675Z,61.80
2023-05-01T20:17:21.871Z,61.70
2023-05-01T20:19:51.176Z,61.60
2023-05-01T20:22:20.578Z,61.80
2023-05-01T20:24:50.089Z,62.00
2023-05-01T20:27:19.288Z,62.20
2023-05-01T20:29:48.582Z,62.30
2023-05-01T20:32:17.683Z,62.50
2023-05-01T20:34:46.875Z,62.40
2023-05-01T20:37:15.754Z,62.40
2023-05-01T20:39:44.973Z,62.60
2023-05-01T20:42:14.570Z,62.70
2023-05-01T20:44:43.658Z,62.40
2023-05-01T20:47:12.870Z,62.90
2023-05-01T20:49:42.296Z,62.60
2023-05-01T20:52:11.565Z,62.60
2023-05-01T20:54:40.758Z,62.70
2023-05-01T20:57:10.076Z,62.70
2023-05-01T20:59:39.162Z,62.70
2023-05-01T21:02:08.586Z,62.90
2023-05-01T21:04:37.751Z,62.70
2023-05-01T21:07:06.965Z,62.70
2023-05-01T21:09:36.178Z,62.70
2023-05-01T21:12:05.148Z,62.70
2023-05-01T21:14:34.849Z,62.70
2023-05-01T21:17:03.764Z,62.80
2023-05-01T21:19:33.050Z,62.60
2023-05-01T21:22:02.262Z,62.50
2023-05-01T21:24:31.239Z,63.00
2023-05-01T21:27:00.334Z,63.40
2023-05-01T21:29:29.640Z,63.20
2023-05-01T21:31:59.050Z,63.10
2023-05-01T21:34:28.336Z,63.20
2023-05-01T21:36:57.432Z,62.50
2023-05-01T21:39:26.748Z,61.60
2023-05-01T21:41:56.142Z,60.90
2023-05-01T21:44:25.129Z,60.00
2023-05-01T21:46:54.512Z,60.40
2023-05-01T21:49:23.738Z,59.60
2023-05-01T21:51:53.043Z,59.50
2023-05-01T21:54:22.126Z,59.30
2023-05-01T21:56:51.332Z,59.10
2023-05-01T21:59:20.216Z,58.40
2023-05-01T22:01:49.314Z,58.00
2023-05-01T22:04:18.635Z,58.20
2023-05-01T22:06:48.139Z,58.10
2023-05-01T22:09:17.315Z,57.90
2023-05-01T22:11:46.413Z,58.20
2023-05-01T22:14:15.822Z,57.90
2023-05-01T22:16:44.941Z,57.90
2023-05-01T22:19:14.523Z,58.80
2023-05-01T22:21:43.722Z,58.90
2023-05-01T22:24:12.608Z,58.90
2023-05-01T22:26:41.703Z,58.90
2023-05-01T22:29:11.139Z,58.90
2023-05-01T22:31:40.652Z,59.30
2023-05-01T22:34:09.811Z,59.10
2023-05-01T22:36:39.219Z,59.10
2023-05-01T22:39:08.313Z,59.30
2023-05-01T22:41:37.510Z,59.80
2023-05-01T22:44:06.815Z,61.10
2023-05-01T22:46:36.266Z,61.50
2023-05-01T22:49:05.521Z,61.80
2023-05-01T22:51:34.715Z,62.30
2023-05-01T22:54:03.919Z,62.10
2023-05-01T22:56:33.324Z,62.60
2023-05-01T22:59:02.621Z,62.80
2023-05-01T23:01:31.657Z,62.20
2023-05-01T23:04:01.129Z,63.10
2023-05-01T23:06:30.546Z,61.40
2023-05-01T23:08:59.709Z,61.30
2023-05-01T23:11:28.902Z,61.30
2023-05-01T23:13:58.105Z,61.10
2023-05-01T23:16:27.268Z,61.20
2023-05-01T23:18:56.408Z,61.40
2023-05-01T23:21:25.812Z,62.00
2023-05-01T23:23:55.206Z,62.30
2023-05-01T23:26:24.198Z,61.80
2023-05-01T23:28:53.624Z,62.00
2023-05-01T23:31:22.983Z,62.30
2023-05-01T23:33:51.897Z,62.30
2023-05-01T23:36:21.307Z,62.70
2023-05-01T23:38:50.602Z,62.90
2023-05-01T23:41:19.900Z,63.30
2023-05-01T23:43:49.211Z,62.80
2023-05-01T23:46:18.422Z,63.50
2023-05-01T23:48:47.498Z,62.80
2023-05-01T23:51:16.699Z,63.20
2023-05-01T23:53:45.901Z,63.10
2023-05-01T23:56:15.299Z,62.20
2023-05-01T23:58:44.501Z,62.90
